Time;durP1;ratioP1;P1;durP2;ratioP2;P2;SDS_P1;SDS_P2;PMS_P1;PMS_P2;Temp;Humidity;BMP_temperature;BMP_pressure;BME280_temperature;BME280_humidity;BME280_pressure;Samples;Min_cycle;Max_cycle;Signal;HPM_P1;HPM_P2
2022/03/26 00:00:16;;;;;;;59.92;31.15;;;8.30;99.90;;;;;;5051201;28;20033;-44
2022/03/26 00:02:43;;;;;;;53.00;29.90;;;8.10;99.90;;;;;;5052115;28;20067;-47
2022/03/26 00:05:09;;;;;;;50.75;28.42;;;7.90;99.90;;;;;;5052216;28;20488;-47
2022/03/26 00:07:34;;;;;;;49.47;27.63;;;7.80;99.90;;;;;;5051597;28;20033;-47
2022/03/26 00:10:00;;;;;;;54.55;28.02;;;7.80;99.90;;;;;;5052125;28;20033;-45
2022/03/26 00:12:26;;;;;;;52.08;28.15;;;7.70;99.90;;;;;;5051867;28;20045;-48
2022/03/26 00:14:52;;;;;;;48.67;25.75;;;7.60;99.90;;;;;;5051990;28;20040;-46
2022/03/26 00:17:17;;;;;;;49.20;27.95;;;7.70;99.90;;;;;;5051473;28;20071;-47
2022/03/26 00:19:43;;;;;;;51.15;27.65;;;7.60;99.90;;;;;;5051519;28;20041;-49
2022/03/26 00:22:09;;;;;;;47.17;25.30;;;7.60;99.90;;;;;;5051923;28;20041;-49
2022/03/26 00:24:34;;;;;;;45.95;25.40;;;7.40;99.90;;;;;;5050968;28;20044;-46
2022/03/26 00:27:00;;;;;;;45.70;23.27;;;7.40;99.90;;;;;;5048115;28;20041;-49
2022/03/26 00:29:26;;;;;;;42.53;23.58;;;7.30;99.90;;;;;;5050991;28;20029;-45
2022/03/26 00:31:51;;;;;;;42.55;23.33;;;7.20;99.90;;;;;;5051312;28;20406;-45
2022/03/26 00:34:17;;;;;;;44.08;23.65;;;7.10;99.90;;;;;;5051683;28;20484;-47
2022/03/26 00:36:43;;;;;;;46.95;24.27;;;7.10;99.90;;;;;;5050904;28;20041;-46
2022/03/26 00:39:08;;;;;;;45.90;25.13;;;7.00;99.90;;;;;;5050288;28;20369;-44
2022/03/26 00:41:34;;;;;;;42.63;24.45;;;7.00;99.90;;;;;;5049857;28;20052;-42
2022/03/26 00:44:01;;;;;;;45.65;24.05;;;7.00;99.90;;;;;;5049615;28;20508;-44
2022/03/26 00:46:27;;;;;;;47.47;24.88;;;6.90;99.90;;;;;;5051231;28;20057;-48
2022/03/26 00:48:56;;;;;;;44.03;24.70;;;6.90;99.90;;;;;;5048619;28;20112;-47
2022/03/26 00:51:22;;;;;;;43.42;23.90;;;6.90;99.90;;;;;;5050569;28;20392;-47
2022/03/26 00:53:48;;;;;;;46.53;24.92;;;6.80;99.90;;;;;;5050099;28;20184;-46
2022/03/26 00:56:14;;;;;;;45.03;24.73;;;6.80;99.90;;;;;;5048707;28;20108;-46
2022/03/26 00:58:40;;;;;;;42.95;23.85;;;6.80;99.90;;;;;;5047088;28;20127;-46
2022/03/26 01:01:07;;;;;;;46.80;24.55;;;6.70;99.90;;;;;;5049432;28;20183;-43
2022/03/26 01:03:34;;;;;;;46.78;25.30;;;6.60;99.90;;;;;;5047961;28;20045;-47
2022/03/26 01:05:59;;;;;;;43.53;24.40;;;6.50;99.90;;;;;;5049222;28;20086;-47
2022/03/26 01:08:25;;;;;;;45.50;25.10;;;6.50;99.90;;;;;;5049110;28;20032;-44
2022/03/26 01:10:51;;;;;;;49.38;25.48;;;6.50;99.90;;;;;;5048867;28;20039;-49
2022/03/26 01:13:17;;;;;;;42.15;24.23;;;6.40;99.90;;;;;;5049499;28;20044;-49
2022/03/26 01:15:42;;;;;;;48.75;26.48;;;6.40;99.90;;;;;;5048540;28;20041;-49
2022/03/26 01:18:09;;;;;;;49.67;24.83;;;6.40;99.90;;;;;;5048681;28;20045;-45
2022/03/26 01:20:35;;;;;;;45.22;25.85;;;6.50;99.90;;;;;;5048696;28;20072;-48
2022/03/26 01:23:01;;;;;;;48.25;25.58;;;6.50;99.90;;;;;;5048859;28;20043;-47
2022/03/26 01:25:27;;;;;;;44.90;25.48;;;6.50;99.90;;;;;;5047292;28;20492;-45
2022/03/26 01:27:52;;;;;;;47.28;24.55;;;6.50;99.90;;;;;;5047219;28;20044;-46
2022/03/26 01:30:18;;;;;;;47.25;25.13;;;6.50;99.90;;;;;;5046452;28;20037;-43
2022/03/26 01:32:44;;;;;;;47.33;25.80;;;6.40;99.90;;;;;;5049172;28;20049;-47
2022/03/26 01:35:11;;;;;;;48.22;25.50;;;6.20;99.90;;;;;;5049414;28;20049;-47
2022/03/26 01:37:37;;;;;;;42.33;24.88;;;6.20;99.90;;;;;;5047793;28;20068;-45
2022/03/26 01:40:04;;;;;;;43.72;25.33;;;6.10;99.90;;;;;;5050221;28;20071;-48
2022/03/26 01:42:30;;;;;;;48.78;25.48;;;6.10;99.90;;;;;;5048968;28;20049;-45
2022/03/26 01:44:55;;;;;;;45.15;24.25;;;6.00;99.90;;;;;;5050205;28;20059;-48
2022/03/26 01:47:21;;;;;;;46.28;25.23;;;6.00;99.90;;;;;;5046185;28;20045;-48
2022/03/26 01:49:47;;;;;;;40.88;24.30;;;6.10;99.90;;;;;;5048610;28;20044;-48
2022/03/26 01:52:12;;;;;;;47.60;25.20;;;6.10;99.90;;;;;;5049048;28;20504;-48
2022/03/26 01:54:40;;;;;;;47.70;25.40;;;6.00;99.90;;;;;;5049267;28;20396;-50
2022/03/26 01:57:10;;;;;;;48.38;26.10;;;6.10;99.90;;;;;;5047788;28;20072;-50
2022/03/26 01:59:37;;;;;;;49.40;27.17;;;5.90;99.90;;;;;;5050068;28;20047;-48
2022/03/26 02:02:03;;;;;;;48.80;26.83;;;6.00;99.90;;;;;;5044996;28;20049;-47
2022/03/26 02:04:29;;;;;;;49.70;27.45;;;5.90;99.90;;;;;;5050110;28;20131;-49
2022/03/26 02:06:54;;;;;;;48.35;26.77;;;5.90;99.90;;;;;;5049207;28;20116;-46
2022/03/26 02:09:20;;;;;;;51.70;27.15;;;5.90;99.90;;;;;;5048262;28;20044;-46
2022/03/26 02:11:47;;;;;;;46.83;26.48;;;5.90;99.90;;;;;;5047447;28;20040;-46
2022/03/26 02:14:14;;;;;;;49.40;27.33;;;5.90;99.90;;;;;;5048439;28;20087;-45
2022/03/26 02:16:42;;;;;;;54.53;29.58;;;5.80;99.90;;;;;;5031336;28;20037;-46
2022/03/26 02:19:09;;;;;;;51.92;29.52;;;5.80;99.90;;;;;;5048379;28;20134;-49
2022/03/26 02:21:37;;;;;;;48.55;27.92;;;5.90;99.90;;;;;;5047472;28;20040;-46
2022/03/26 02:24:06;;;;;;;52.28;27.90;;;5.80;99.90;;;;;;5046581;28;20041;-46
2022/03/26 02:26:32;;;;;;;51.97;29.75;;;5.70;99.90;;;;;;5048429;28;20087;-47
2022/03/26 02:29:05;;;;;;;55.95;29.60;;;5.70;99.90;;;;;;5048835;28;20076;-47
2022/03/26 02:31:30;;;;;;;53.25;30.48;;;5.70;99.90;;;;;;5050672;28;20071;-47
2022/03/26 02:33:56;;;;;;;54.10;29.08;;;5.60;99.90;;;;;;5052331;28;20384;-47
2022/03/26 02:36:22;;;;;;;59.63;30.65;;;5.60;99.90;;;;;;5052581;28;20041;-48
2022/03/26 02:38:47;;;;;;;54.90;29.85;;;5.60;99.90;;;;;;5051276;28;20154;-43
2022/03/26 02:41:13;;;;;;;58.90;31.30;;;5.60;99.90;;;;;;5050761;28;20044;-46
2022/03/26 02:43:39;;;;;;;63.95;33.33;;;5.50;99.90;;;;;;5050056;28;20408;-46
2022/03/26 02:46:05;;;;;;;60.88;32.38;;;5.60;99.90;;;;;;5051349;28;20091;-50
2022/03/26 02:48:31;;;;;;;62.80;32.85;;;5.50;99.90;;;;;;5052009;28;20033;-49
2022/03/26 02:50:57;;;;;;;65.53;33.03;;;5.60;99.90;;;;;;5051998;28;20051;-49
2022/03/26 02:53:23;;;;;;;57.70;31.25;;;5.60;99.90;;;;;;5052311;28;20044;-47
2022/03/26 02:55:48;;;;;;;64.28;32.95;;;5.60;99.90;;;;;;5051684;28;20037;-48
2022/03/26 02:58:14;;;;;;;68.50;34.00;;;5.70;99.90;;;;;;5051403;28;20056;-49
2022/03/26 03:00:40;;;;;;;63.03;33.70;;;5.70;99.90;;;;;;5052142;28;20049;-44
2022/03/26 03:03:06;;;;;;;64.10;33.40;;;5.70;99.90;;;;;;5050340;28;20119;-49
2022/03/26 03:05:33;;;;;;;68.90;35.22;;;5.70;99.90;;;;;;5052692;28;20119;-49
2022/03/26 03:08:00;;;;;;;67.53;34.17;;;5.80;99.90;;;;;;5049438;28;20037;-47
2022/03/26 03:10:26;;;;;;;69.18;33.55;;;5.70;99.90;;;;;;5052134;28;20052;-44
2022/03/26 03:12:52;;;;;;;64.40;32.00;;;5.70;99.90;;;;;;5052435;28;20044;-46
2022/03/26 03:15:17;;;;;;;67.07;35.13;;;5.70;99.90;;;;;;5052291;28;20037;-49
2022/03/26 03:17:45;;;;;;;63.50;32.25;;;5.60;99.90;;;;;;5067559;28;20131;-46
2022/03/26 03:20:12;;;;;;;66.35;33.92;;;5.60;99.90;;;;;;5052011;28;20040;-46
2022/03/26 03:22:38;;;;;;;59.78;32.25;;;5.50;99.90;;;;;;5049841;28;20064;-44
2022/03/26 03:25:07;;;;;;;64.03;33.25;;;5.50;99.90;;;;;;5051699;28;20121;-53
2022/03/26 03:27:34;;;;;;;64.65;33.58;;;5.40;99.90;;;;;;5052325;28;20428;-47
2022/03/26 03:29:59;;;;;;;66.57;33.42;;;5.50;99.90;;;;;;5052153;28;20424;-48
2022/03/26 03:32:26;;;;;;;63.65;33.05;;;5.40;99.90;;;;;;5052426;28;20045;-46
2022/03/26 03:34:52;;;;;;;60.42;32.22;;;5.40;99.90;;;;;;5051891;28;20538;-48
2022/03/26 03:37:18;;;;;;;64.85;33.83;;;5.40;99.90;;;;;;5052194;28;20473;-49
2022/03/26 03:39:44;;;;;;;64.82;34.03;;;5.40;99.90;;;;;;5052269;28;20036;-49
2022/03/26 03:42:10;;;;;;;67.03;35.03;;;5.30;99.90;;;;;;5051446;28;20366;-48
2022/03/26 03:44:35;;;;;;;71.25;35.67;;;5.30;99.90;;;;;;5051934;28;20091;-50
2022/03/26 03:47:02;;;;;;;74.65;37.40;;;5.20;99.90;;;;;;5051916;28;20059;-46
2022/03/26 03:49:31;;;;;;;69.93;35.95;;;5.10;99.90;;;;;;5051716;28;20480;-44
2022/03/26 03:51:58;;;;;;;75.78;38.22;;;5.10;99.90;;;;;;5050706;28;20120;-46
2022/03/26 03:54:24;;;;;;;79.57;39.47;;;5.20;99.90;;;;;;5051286;28;20045;-48
2022/03/26 03:56:50;;;;;;;71.03;37.45;;;5.20;99.90;;;;;;5051772;28;20106;-47
2022/03/26 03:59:15;;;;;;;74.30;37.70;;;5.30;99.90;;;;;;5051541;28;20053;-45
2022/03/26 04:01:41;;;;;;;72.28;36.65;;;5.30;99.90;;;;;;5049569;28;20064;-48
2022/03/26 04:04:07;;;;;;;72.80;36.67;;;5.20;99.90;;;;;;5051466;28;20118;-50
2022/03/26 04:06:33;;;;;;;76.07;37.45;;;5.20;99.90;;;;;;5051746;28;20039;-49
2022/03/26 04:08:58;;;;;;;77.60;37.90;;;5.10;99.90;;;;;;5050491;28;20045;-44
2022/03/26 04:11:24;;;;;;;72.20;37.17;;;5.00;99.90;;;;;;5050122;28;20037;-46
2022/03/26 04:13:53;;;;;;;73.50;37.97;;;5.00;99.90;;;;;;5051043;28;20041;-48
2022/03/26 04:16:19;;;;;;;77.15;38.85;;;5.00;99.90;;;;;;5051445;28;20103;-45
2022/03/26 04:18:45;;;;;;;81.50;39.53;;;4.90;99.90;;;;;;5050232;28;20060;-46
2022/03/26 04:21:11;;;;;;;81.72;40.63;;;4.90;99.90;;;;;;5050845;28;20037;-47
2022/03/26 04:23:37;;;;;;;93.07;44.45;;;5.00;99.90;;;;;;5050994;28;20037;-46
2022/03/26 04:26:03;;;;;;;93.28;44.53;;;4.90;99.90;;;;;;5050941;28;20044;-44
2022/03/26 04:28:28;;;;;;;83.90;41.60;;;4.80;99.90;;;;;;5049359;28;20029;-46
2022/03/26 04:30:54;;;;;;;95.60;44.10;;;4.80;99.90;;;;;;5051048;28;20383;-49
2022/03/26 04:33:20;;;;;;;88.78;43.28;;;4.70;99.90;;;;;;5051203;28;20029;-44
2022/03/26 04:35:46;;;;;;;98.80;45.35;;;4.90;99.90;;;;;;5051017;28;20041;-43
2022/03/26 04:38:12;;;;;;;97.30;44.10;;;4.80;99.90;;;;;;5050731;28;20473;-46
2022/03/26 04:40:38;;;;;;;98.72;46.53;;;4.80;99.90;;;;;;5049648;28;20099;-43
2022/03/26 04:43:03;;;;;;;96.03;45.85;;;5.00;99.90;;;;;;5048799;28;20044;-47
2022/03/26 04:45:30;;;;;;;97.07;45.08;;;4.80;99.90;;;;;;5050675;28;20044;-47
2022/03/26 04:47:56;;;;;;;97.30;46.30;;;4.80;99.90;;;;;;5050391;28;20036;-44
2022/03/26 04:50:22;;;;;;;93.25;44.97;;;4.80;99.90;;;;;;5048819;28;20029;-47
2022/03/26 04:52:48;;;;;;;96.03;44.47;;;4.70;99.90;;;;;;5050602;28;20036;-49
2022/03/26 04:55:15;;;;;;;98.72;45.85;;;4.80;99.90;;;;;;5048927;28;20051;-46
2022/03/26 04:57:42;;;;;;;94.80;45.22;;;4.80;99.90;;;;;;5050237;28;20060;-46
2022/03/26 05:00:10;;;;;;;89.50;42.88;;;4.70;99.90;;;;;;5050022;28;20045;-46
2022/03/26 05:02:39;;;;;;;90.95;43.22;;;4.50;99.90;;;;;;5047924;28;20041;-44
2022/03/26 05:05:09;;;;;;;93.47;44.80;;;4.50;99.90;;;;;;5049361;28;20140;-47
2022/03/26 05:07:45;;;;;;;90.93;44.75;;;4.50;99.90;;;;;;5050581;28;20603;-47
2022/03/26 05:10:12;;;;;;;91.57;43.28;;;4.40;99.90;;;;;;5050130;28;20033;-50
2022/03/26 05:12:37;;;;;;;86.93;42.83;;;4.30;99.90;;;;;;5048975;28;20045;-44
2022/03/26 05:15:03;;;;;;;96.68;45.15;;;4.30;99.90;;;;;;5050190;28;20055;-47
2022/03/26 05:17:29;;;;;;;91.13;44.10;;;4.40;99.90;;;;;;5050274;28;20045;-48
2022/03/26 05:19:55;;;;;;;96.32;46.55;;;4.50;99.90;;;;;;5050173;28;20490;-44
2022/03/26 05:22:20;;;;;;;100.20;45.58;;;4.50;99.90;;;;;;5050148;28;20524;-45
2022/03/26 05:24:46;;;;;;;89.82;43.00;;;4.40;99.90;;;;;;5049488;28;20101;-46
2022/03/26 05:27:11;;;;;;;86.68;41.78;;;4.30;99.90;;;;;;5050299;28;20110;-46
2022/03/26 05:29:37;;;;;;;96.00;45.28;;;4.40;99.90;;;;;;5048353;28;20079;-45
2022/03/26 05:32:04;;;;;;;100.57;45.97;;;4.40;99.90;;;;;;5050235;28;20039;-47
2022/03/26 05:34:29;;;;;;;97.97;44.92;;;4.30;99.90;;;;;;5050084;28;20447;-44
2022/03/26 05:36:55;;;;;;;108.03;46.55;;;4.40;99.90;;;;;;5049764;28;20044;-46
2022/03/26 05:39:21;;;;;;;93.45;45.22;;;4.40;99.90;;;;;;5050128;28;20040;-49
2022/03/26 05:41:47;;;;;;;103.65;46.38;;;4.40;99.90;;;;;;5048908;28;20082;-44
2022/03/26 05:44:13;;;;;;;95.63;45.67;;;4.40;99.90;;;;;;5049340;28;20041;-48
2022/03/26 05:46:39;;;;;;;103.95;47.33;;;4.30;99.90;;;;;;5047193;28;20033;-45
2022/03/26 05:49:04;;;;;;;99.68;48.67;;;4.40;99.90;;;;;;5050383;28;20145;-45
2022/03/26 05:51:30;;;;;;;101.40;45.83;;;4.50;99.90;;;;;;5048406;28;20033;-47
2022/03/26 05:53:56;;;;;;;101.20;46.58;;;4.50;99.90;;;;;;5048362;28;20037;-45
2022/03/26 05:56:22;;;;;;;102.45;47.50;;;4.30;99.90;;;;;;5047290;28;20390;-46
2022/03/26 05:58:50;;;;;;;110.03;48.25;;;4.60;99.90;;;;;;5047925;28;20063;-49
2022/03/26 06:01:16;;;;;;;116.35;50.97;;;4.40;99.90;;;;;;5047791;28;20060;-46
2022/03/26 06:03:42;;;;;;;117.93;50.53;;;4.50;99.90;;;;;;5048289;28;20424;-49
2022/03/26 06:06:08;;;;;;;118.65;53.15;;;4.40;99.90;;;;;;5050656;28;20040;-48
2022/03/26 06:08:34;;;;;;;127.18;57.45;;;4.50;99.90;;;;;;5051380;28;21562;-45
2022/03/26 06:10:59;;;;;;;133.48;58.42;;;4.60;99.90;;;;;;5052229;28;20033;-45
2022/03/26 06:13:25;;;;;;;150.70;64.30;;;4.50;99.90;;;;;;5053511;28;20119;-46
2022/03/26 06:15:51;;;;;;;154.15;64.45;;;4.80;99.90;;;;;;5049566;28;20041;-47
2022/03/26 06:18:16;;;;;;;160.38;68.88;;;4.80;99.90;;;;;;5050536;28;20048;-46
2022/03/26 06:20:42;;;;;;;164.65;69.78;;;4.80;99.90;;;;;;5046516;28;20067;-45
2022/03/26 06:23:08;;;;;;;165.13;70.50;;;4.90;99.90;;;;;;5048064;28;20045;-46
2022/03/26 06:25:33;;;;;;;156.05;68.15;;;4.70;99.90;;;;;;5050194;28;20437;-45
2022/03/26 06:28:00;;;;;;;164.55;70.45;;;4.70;99.90;;;;;;5050130;28;20114;-46
2022/03/26 06:30:26;;;;;;;162.40;71.80;;;5.00;99.90;;;;;;5050200;28;20114;-49
2022/03/26 06:32:52;;;;;;;158.63;70.45;;;4.90;99.90;;;;;;5048646;28;20452;-45
2022/03/26 06:35:18;;;;;;;162.02;69.28;;;5.00;99.90;;;;;;5050485;28;20045;-46
2022/03/26 06:37:44;;;;;;;167.57;70.07;;;5.00;99.90;;;;;;5049430;28;20052;-44
2022/03/26 06:40:10;;;;;;;154.18;69.28;;;4.90;99.90;;;;;;5049000;28;20091;-48
2022/03/26 06:42:36;;;;;;;162.93;71.90;;;4.90;99.90;;;;;;5049166;28;20045;-47
2022/03/26 06:45:02;;;;;;;174.05;74.97;;;5.10;99.90;;;;;;5048848;28;20157;-48
2022/03/26 06:47:30;;;;;;;164.10;70.93;;;5.10;99.90;;;;;;5050689;28;20075;-46
2022/03/26 06:49:55;;;;;;;159.43;68.95;;;5.30;99.90;;;;;;5048316;28;20048;-44
2022/03/26 06:52:23;;;;;;;161.88;72.38;;;5.20;99.90;;;;;;5049202;28;20055;-47
2022/03/26 06:54:50;;;;;;;178.13;74.55;;;5.20;99.90;;;;;;5049429;28;20041;-46
2022/03/26 06:57:16;;;;;;;167.80;75.38;;;5.30;99.90;;;;;;5050667;28;20032;-47
2022/03/26 06:59:42;;;;;;;173.32;74.63;;;5.40;99.90;;;;;;5050422;28;20045;-47
2022/03/26 07:02:07;;;;;;;173.80;74.13;;;5.50;99.90;;;;;;5049842;28;20033;-49
2022/03/26 07:04:33;;;;;;;180.20;74.30;;;5.50;99.90;;;;;;5048424;28;20031;-46
2022/03/26 07:06:59;;;;;;;169.98;75.40;;;5.70;99.90;;;;;;5050268;28;20037;-47
2022/03/26 07:09:24;;;;;;;175.98;75.50;;;5.90;99.90;;;;;;5048562;28;21302;-47
2022/03/26 07:11:51;;;;;;;170.10;75.50;;;5.90;99.90;;;;;;5040067;28;20047;-44
2022/03/26 07:14:17;;;;;;;166.35;74.45;;;6.00;99.90;;;;;;5040817;28;20048;-45
2022/03/26 07:16:43;;;;;;;181.00;78.75;;;5.90;99.90;;;;;;5040464;28;20041;-45
2022/03/26 07:19:10;;;;;;;179.73;76.50;;;6.30;99.90;;;;;;5055003;28;20439;-47
2022/03/26 07:21:37;;;;;;;187.13;78.97;;;6.30;99.90;;;;;;5041137;28;20032;-47
2022/03/26 07:24:04;;;;;;;178.35;79.32;;;6.40;99.90;;;;;;5041669;28;20052;-48
2022/03/26 07:26:30;;;;;;;165.25;75.88;;;6.50;99.90;;;;;;5040018;28;20045;-46
2022/03/26 07:28:56;;;;;;;165.45;74.45;;;6.80;99.90;;;;;;5041018;28;20033;-48
2022/03/26 07:31:23;;;;;;;163.15;73.00;;;6.80;99.90;;;;;;5040997;28;20081;-46
2022/03/26 07:33:49;;;;;;;154.27;69.50;;;6.90;99.90;;;;;;5041422;28;20044;-49
2022/03/26 07:36:15;;;;;;;151.75;69.35;;;6.90;99.90;;;;;;5039298;28;20068;-49
2022/03/26 07:38:41;;;;;;;146.63;65.95;;;7.00;99.90;;;;;;5039667;28;20415;-47
2022/03/26 07:41:07;;;;;;;149.25;67.53;;;7.00;99.90;;;;;;5040730;28;20602;-47
2022/03/26 07:43:34;;;;;;;146.77;67.32;;;7.10;99.90;;;;;;5042193;28;20373;-48
2022/03/26 07:45:59;;;;;;;141.57;64.10;;;7.30;99.90;;;;;;5041152;28;20543;-46
2022/03/26 07:48:25;;;;;;;142.70;64.60;;;7.30;99.90;;;;;;5034602;28;20041;-43
2022/03/26 07:50:51;;;;;;;140.23;65.65;;;7.50;99.90;;;;;;5034411;28;20069;-49
2022/03/26 07:53:17;;;;;;;139.20;63.35;;;7.60;99.90;;;;;;5030780;28;20037;-47
2022/03/26 07:55:43;;;;;;;134.93;61.55;;;7.60;99.90;;;;;;5033514;28;20040;-49
2022/03/26 07:58:09;;;;;;;144.95;65.07;;;7.80;99.90;;;;;;5036269;28;20064;-47
2022/03/26 08:00:35;;;;;;;125.82;58.47;;;7.90;99.90;;;;;;5032705;28;20107;-47
2022/03/26 08:03:01;;;;;;;127.95;59.42;;;8.10;99.90;;;;;;5029108;28;20535;-48
2022/03/26 08:05:27;;;;;;;124.78;58.53;;;8.10;99.90;;;;;;5036052;28;20029;-44
2022/03/26 08:07:53;;;;;;;127.72;58.55;;;8.20;99.90;;;;;;5033133;28;20043;-47
2022/03/26 08:10:18;;;;;;;128.85;58.70;;;8.40;99.90;;;;;;5037133;28;20029;-44
2022/03/26 08:12:44;;;;;;;123.43;58.22;;;8.50;99.90;;;;;;5031829;28;20128;-46
2022/03/26 08:15:10;;;;;;;120.30;56.53;;;8.60;99.90;;;;;;5031657;28;20044;-48
2022/03/26 08:17:35;;;;;;;110.07;53.72;;;8.70;99.90;;;;;;5032252;28;21435;-49
2022/03/26 08:20:01;;;;;;;111.95;54.17;;;8.80;99.90;;;;;;5031925;28;20461;-46
2022/03/26 08:22:28;;;;;;;102.85;50.08;;;9.00;99.90;;;;;;5034032;28;20045;-50
2022/03/26 08:24:54;;;;;;;102.85;48.97;;;9.20;99.90;;;;;;5031891;28;20029;-46
2022/03/26 08:27:19;;;;;;;92.35;45.53;;;9.40;99.90;;;;;;5031515;28;20079;-45
2022/03/26 08:29:46;;;;;;;94.93;43.53;;;9.40;99.90;;;;;;5032399;28;20060;-46
2022/03/26 08:32:12;;;;;;;97.65;45.10;;;9.50;99.90;;;;;;5031296;28;20519;-48
2022/03/26 08:34:38;;;;;;;101.60;47.25;;;9.60;99.90;;;;;;5032519;28;20072;-50
2022/03/26 08:37:03;;;;;;;109.60;50.00;;;9.80;99.90;;;;;;5032972;28;20415;-47
2022/03/26 08:39:29;;;;;;;98.63;47.75;;;10.00;99.90;;;;;;5031414;28;20029;-45
2022/03/26 08:41:55;;;;;;;85.00;41.92;;;10.10;99.90;;;;;;5029696;28;20033;-45
2022/03/26 08:44:20;;;;;;;91.00;44.75;;;10.20;99.90;;;;;;5055815;28;20057;-45
2022/03/26 08:46:46;;;;;;;87.47;43.15;;;10.00;99.90;;;;;;5030166;28;20038;-48
2022/03/26 08:49:12;;;;;;;86.68;43.17;;;10.30;99.90;;;;;;5030563;28;20075;-47
2022/03/26 08:51:37;;;;;;;87.30;42.88;;;10.40;99.90;;;;;;5030180;28;20033;-44
2022/03/26 08:54:03;;;;;;;91.43;43.95;;;10.40;99.90;;;;;;5029041;28;20047;-47
2022/03/26 08:56:29;;;;;;;87.53;43.55;;;10.70;99.90;;;;;;5029288;28;20477;-46
2022/03/26 08:58:55;;;;;;;91.80;43.65;;;10.90;99.90;;;;;;5029797;28;20531;-46
2022/03/26 09:01:21;;;;;;;87.80;42.92;;;11.00;99.90;;;;;;5029182;28;20049;-49
2022/03/26 09:03:50;;;;;;;79.18;38.28;;;11.20;99.90;;;;;;5031171;28;20041;-48
2022/03/26 09:06:16;;;;;;;72.18;37.17;;;11.30;99.90;;;;;;5028916;28;20041;-46
2022/03/26 09:08:42;;;;;;;69.30;33.67;;;11.60;99.90;;;;;;5029592;28;20029;-46
2022/03/26 09:11:08;;;;;;;68.63;34.90;;;11.70;99.90;;;;;;5027197;28;20049;-46
2022/03/26 09:13:34;;;;;;;67.20;33.17;;;11.70;99.90;;;;;;5030983;28;20051;-49
2022/03/26 09:16:00;;;;;;;65.72;31.85;;;11.90;99.90;;;;;;5033465;28;20090;-48
2022/03/26 09:18:26;;;;;;;63.92;31.05;;;12.20;99.90;;;;;;5032813;28;20384;-50
2022/03/26 09:20:53;;;;;;;60.80;31.45;;;12.20;99.90;;;;;;5029846;28;20140;-46
2022/03/26 09:23:18;;;;;;;66.82;31.85;;;12.50;99.90;;;;;;5029607;28;20045;-48
2022/03/26 09:25:44;;;;;;;60.72;29.95;;;12.60;99.90;;;;;;5029920;28;20372;-49
2022/03/26 09:28:10;;;;;;;60.70;29.23;;;12.80;99.90;;;;;;5030643;28;20036;-47
2022/03/26 09:30:36;;;;;;;62.13;29.20;;;12.80;99.90;;;;;;5031798;28;20037;-48
2022/03/26 09:33:03;;;;;;;64.85;30.42;;;13.00;99.90;;;;;;5027791;28;20041;-48
2022/03/26 09:35:29;;;;;;;62.53;28.83;;;13.20;99.90;;;;;;5028320;28;20480;-47
2022/03/26 09:37:55;;;;;;;59.45;29.27;;;13.30;99.90;;;;;;5029946;28;20049;-50
2022/03/26 09:40:23;;;;;;;59.13;30.50;;;13.40;99.90;;;;;;5031600;28;20408;-48
2022/03/26 09:42:49;;;;;;;71.60;31.10;;;13.60;99.90;;;;;;5037482;28;20400;-49
2022/03/26 09:45:16;;;;;;;66.40;29.90;;;13.50;99.90;;;;;;5036203;28;20040;-51
2022/03/26 09:47:42;;;;;;;63.20;29.88;;;13.70;99.90;;;;;;5034484;28;20261;-50
2022/03/26 09:50:09;;;;;;;63.10;30.02;;;13.70;99.90;;;;;;5037944;28;20120;-49
2022/03/26 09:52:35;;;;;;;66.78;31.67;;;13.80;99.90;;;;;;5038683;28;20051;-45
2022/03/26 09:55:02;;;;;;;58.88;30.38;;;13.80;99.90;;;;;;5038020;28;20476;-49
2022/03/26 09:57:29;;;;;;;61.90;30.23;;;13.80;99.90;;;;;;5044003;28;20041;-46
2022/03/26 09:59:55;;;;;;;61.65;30.67;;;14.00;99.90;;;;;;5036569;28;20041;-48
2022/03/26 10:02:21;;;;;;;60.17;28.88;;;14.00;99.90;;;;;;5038078;28;20115;-49
2022/03/26 10:04:47;;;;;;;57.00;29.00;;;14.10;99.90;;;;;;5036903;28;20521;-51
2022/03/26 10:07:12;;;;;;;64.47;30.20;;;14.30;99.90;;;;;;5035754;28;20067;-48
2022/03/26 10:09:40;;;;;;;59.90;29.55;;;14.30;99.90;;;;;;5034009;28;20417;-49
2022/03/26 10:12:19;;;;;;;59.17;28.02;;;14.50;99.90;;;;;;5034554;28;20063;-51
2022/03/26 10:14:46;;;;;;;59.10;28.73;;;14.60;99.90;;;;;;5037066;28;20108;-46
2022/03/26 10:17:24;;;;;;;59.72;28.00;;;14.70;99.90;;;;;;5037835;28;20041;-50
2022/03/26 10:19:51;;;;;;;56.35;28.20;;;14.80;99.90;;;;;;5035641;28;20107;-50
2022/03/26 10:22:26;;;;;;;54.83;27.30;;;14.90;99.90;;;;;;5036766;28;20025;-48
2022/03/26 10:24:53;;;;;;;56.53;27.65;;;14.80;99.80;;;;;;5034522;28;20041;-48
2022/03/26 10:27:19;;;;;;;53.25;27.42;;;14.90;99.90;;;;;;5035503;28;20044;-47
2022/03/26 10:29:56;;;;;;;53.55;27.40;;;15.00;99.90;;;;;;5037559;28;20469;-49
2022/03/26 10:32:45;;;;;;;54.13;26.02;;;14.90;99.60;;;;;;5036798;28;20098;-48
2022/03/26 10:35:14;;;;;;;56.17;26.88;;;15.00;99.50;;;;;;5035533;28;20108;-48
2022/03/26 10:37:42;;;;;;;57.78;26.65;;;15.20;99.70;;;;;;5038324;28;20033;-47
2022/03/26 10:40:22;;;;;;;52.15;26.70;;;15.30;99.90;;;;;;5036712;28;20064;-50
2022/03/26 10:43:01;;;;;;;50.85;26.20;;;15.30;99.60;;;;;;5036739;28;20045;-50
2022/03/26 10:45:28;;;;;;;50.53;24.55;;;15.40;99.10;;;;;;5036351;28;20396;-47
2022/03/26 10:47:56;;;;;;;39.42;19.88;;;15.40;99.90;;;;;;5035732;28;20112;-50
2022/03/26 10:50:22;;;;;;;41.00;18.55;;;15.60;99.90;;;;;;5036181;28;20030;-50
2022/03/26 10:52:48;;;;;;;28.10;15.98;;;15.70;99.90;;;;;;5032207;28;20477;-49
2022/03/26 10:55:18;;;;;;;29.40;16.77;;;15.70;99.90;;;;;;5031328;28;20060;-47
2022/03/26 10:57:45;;;;;;;28.40;16.30;;;15.70;99.90;;;;;;5033785;28;20080;-48
2022/03/26 11:00:17;;;;;;;34.88;18.23;;;15.90;99.90;;;;;;5034226;28;20099;-46
2022/03/26 11:02:43;;;;;;;32.83;18.67;;;15.90;99.90;;;;;;5034771;28;20052;-47
2022/03/26 11:05:10;;;;;;;32.78;18.38;;;15.90;99.90;;;;;;5033406;28;20120;-47
2022/03/26 11:07:38;;;;;;;35.25;19.30;;;16.10;99.90;;;;;;5034654;28;20033;-47
2022/03/26 11:10:09;;;;;;;35.45;20.10;;;16.20;99.90;;;;;;5032614;28;20025;-50
2022/03/26 11:12:41;;;;;;;31.05;17.90;;;16.10;99.90;;;;;;5030020;28;20045;-48
2022/03/26 11:15:09;;;;;;;32.33;18.17;;;16.30;99.90;;;;;;5033051;28;20111;-51
2022/03/26 11:17:47;;;;;;;31.38;18.05;;;16.60;99.90;;;;;;5033044;28;20041;-47
2022/03/26 11:20:31;;;;;;;35.00;18.25;;;16.50;99.90;;;;;;5031862;28;20033;-47
2022/03/26 11:23:20;;;;;;;33.88;20.63;;;16.60;99.90;;;;;;5030797;28;20057;-47
2022/03/26 11:26:08;;;;;;;34.55;20.25;;;16.50;99.90;;;;;;5031723;28;20037;-48
2022/03/26 11:29:04;;;;;;;34.45;19.83;;;16.80;99.90;;;;;;5029825;28;20041;-45
2022/03/26 11:31:59;;;;;;;29.33;18.00;;;16.80;99.90;;;;;;5030532;28;20114;-46
2022/03/26 11:34:25;;;;;;;30.52;18.45;;;16.90;99.90;;;;;;5022955;28;20050;-47
2022/03/26 11:36:51;;;;;;;32.75;17.30;;;16.80;99.90;;;;;;5031939;28;20051;-49
2022/03/26 11:39:19;;;;;;;26.38;15.93;;;17.00;99.90;;;;;;5033525;28;20049;-46
2022/03/26 11:41:45;;;;;;;28.88;14.88;;;17.10;99.90;;;;;;5033437;28;20037;-46
2022/03/26 11:44:15;;;;;;;29.25;16.40;;;17.10;99.90;;;;;;5034304;28;20068;-48
2022/03/26 11:52:24;;;;;;;31.55;18.17;;;17.30;99.90;;;;;;5033105;28;20087;-47
2022/03/26 11:54:55;;;;;;;24.38;16.15;;;17.50;99.90;;;;;;5032807;28;20127;-51
2022/03/26 11:57:23;;;;;;;28.27;17.75;;;17.60;99.90;;;;;;5033871;28;20415;-47
2022/03/26 11:59:50;;;;;;;26.42;16.52;;;17.70;99.90;;;;;;5034091;28;20040;-49
2022/03/26 12:02:25;;;;;;;29.20;16.75;;;17.80;99.90;;;;;;5033211;28;20700;-48
2022/03/26 12:04:53;;;;;;;28.15;17.45;;;18.00;99.90;;;;;;5032247;28;20501;-49
2022/03/26 12:07:26;;;;;;;29.95;18.42;;;17.90;99.90;;;;;;5034817;28;20036;-47
2022/03/26 12:10:09;;;;;;;27.85;16.63;;;18.00;99.90;;;;;;5034458;28;20094;-46
2022/03/26 12:12:49;;;;;;;30.37;18.00;;;18.30;99.90;;;;;;5045786;28;20120;-48
2022/03/26 12:15:15;;;;;;;30.65;18.40;;;18.40;99.90;;;;;;5029940;28;20073;-50
2022/03/26 12:17:45;;;;;;;26.58;17.38;;;18.40;99.90;;;;;;5035041;28;20143;-50
2022/03/26 12:20:37;;;;;;;25.90;16.63;;;18.30;99.90;;;;;;5034872;28;20032;-47
2022/03/26 12:23:34;;;;;;;27.52;15.93;;;18.50;99.90;;;;;;5033532;28;20409;-50
2022/03/26 12:26:07;;;;;;;23.35;15.68;;;18.50;99.60;;;;;;5023584;28;20052;-48
2022/03/26 12:28:38;;;;;;;22.70;14.67;;;18.30;99.90;;;;;;5029198;28;20026;-51
2022/03/26 12:31:13;;;;;;;23.80;15.27;;;18.50;99.90;;;;;;5031069;28;20484;-52
2022/03/26 12:33:43;;;;;;;22.05;13.77;;;18.50;99.40;;;;;;5033019;28;20041;-50
2022/03/26 12:36:09;;;;;;;22.10;13.90;;;18.70;99.40;;;;;;5030435;28;20045;-48